sensor_id;sensor_type;location;lat;lon;timestamp;temperature;humidity
16829;DHT22;8531;48.078;11.968;2022-07-12T00:00:53;18.40;99.90
16829;DHT22;8531;48.078;11.968;2022-07-12T00:03:18;18.30;99.90
16829;DHT22;8531;48.078;11.968;2022-07-12T00:05:44;18.20;99.90
16829;DHT22;8531;48.078;11.968;2022-07-12T00:08:09;18.20;99.90
16829;DHT22;8531;48.078;11.968;2022-07-12T00:10:35;18.30;99.90
16829;DHT22;8531;48.078;11.968;2022-07-12T00:13:02;18.40;99.90
16829;DHT22;8531;48.078;11.968;2022-07-12T00:15:28;18.10;99.90
16829;DHT22;8531;48.078;11.968;2022-07-12T00:17:53;18.00;99.90
16829;DHT22;8531;48.078;11.968;2022-07-12T00:20:19;17.90;99.90
16829;DHT22;8531;48.078;11.968;2022-07-12T00:22:45;18.00;99.90
16829;DHT22;8531;48.078;11.968;2022-07-12T00:25:12;18.10;99.90
16829;DHT22;8531;48.078;11.968;2022-07-12T00:27:39;18.20;99.90
16829;DHT22;8531;48.078;11.968;2022-07-12T00:30:06;18.20;99.90
16829;DHT22;8531;48.078;11.968;2022-07-12T00:32:33;18.20;99.90
16829;DHT22;8531;48.078;11.968;2022-07-12T00:34:58;18.20;99.90
16829;DHT22;8531;48.078;11.968;2022-07-12T00:37:24;18.10;99.90
16829;DHT22;8531;48.078;11.968;2022-07-12T00:39:50;18.20;99.90
16829;DHT22;8531;48.078;11.968;2022-07-12T00:42:17;18.20;99.90
16829;DHT22;8531;48.078;11.968;2022-07-12T00:44:43;18.20;99.90
16829;DHT22;8531;48.078;11.968;2022-07-12T00:49:53;18.00;99.90
16829;DHT22;8531;48.078;11.968;2022-07-12T00:52:19;18.00;99.90
16829;DHT22;8531;48.078;11.968;2022-07-12T00:54:44;18.00;99.90
16829;DHT22;8531;48.078;11.968;2022-07-12T00:57:10;18.00;99.90
16829;DHT22;8531;48.078;11.968;2022-07-12T00:59:36;18.00;99.90
16829;DHT22;8531;48.078;11.968;2022-07-12T01:02:01;18.00;99.90
16829;DHT22;8531;48.078;11.968;2022-07-12T01:04:28;18.10;99.90
16829;DHT22;8531;48.078;11.968;2022-07-12T01:06:54;18.10;99.90
16829;DHT22;8531;48.078;11.968;2022-07-12T01:09:20;17.90;99.90
16829;DHT22;8531;48.078;11.968;2022-07-12T01:11:45;17.90;99.90
16829;DHT22;8531;48.078;11.968;2022-07-12T01:14:11;17.90;99.90
16829;DHT22;8531;48.078;11.968;2022-07-12T01:16:39;17.90;99.90
16829;DHT22;8531;48.078;11.968;2022-07-12T01:19:06;17.90;99.90
16829;DHT22;8531;48.078;11.968;2022-07-12T01:21:36;17.80;99.90
16829;DHT22;8531;48.078;11.968;2022-07-12T01:24:03;17.80;99.90
16829;DHT22;8531;48.078;11.968;2022-07-12T01:26:30;17.80;99.90
16829;DHT22;8531;48.078;11.968;2022-07-12T01:28:56;17.70;99.90
16829;DHT22;8531;48.078;11.968;2022-07-12T01:31:22;17.80;99.90
16829;DHT22;8531;48.078;11.968;2022-07-12T01:33:49;17.70;99.90
16829;DHT22;8531;48.078;11.968;2022-07-12T01:36:16;17.70;99.90
16829;DHT22;8531;48.078;11.968;2022-07-12T01:38:42;17.70;99.90
16829;DHT22;8531;48.078;11.968;2022-07-12T01:41:08;17.70;99.90
16829;DHT22;8531;48.078;11.968;2022-07-12T01:43:34;17.70;99.90
16829;DHT22;8531;48.078;11.968;2022-07-12T01:45:59;17.70;99.90
16829;DHT22;8531;48.078;11.968;2022-07-12T01:48:25;17.70;99.90
16829;DHT22;8531;48.078;11.968;2022-07-12T01:50:51;17.70;99.90
16829;DHT22;8531;48.078;11.968;2022-07-12T01:53:16;17.70;99.90
16829;DHT22;8531;48.078;11.968;2022-07-12T01:55:42;17.60;99.90
16829;DHT22;8531;48.078;11.968;2022-07-12T01:58:07;17.60;99.90
16829;DHT22;8531;48.078;11.968;2022-07-12T02:00:33;17.50;99.90
16829;DHT22;8531;48.078;11.968;2022-07-12T02:02:59;17.60;99.90
16829;DHT22;8531;48.078;11.968;2022-07-12T02:05:25;17.50;99.90
16829;DHT22;8531;48.078;11.968;2022-07-12T02:07:51;17.50;99.90
16829;DHT22;8531;48.078;11.968;2022-07-12T02:10:18;17.50;99.90
16829;DHT22;8531;48.078;11.968;2022-07-12T02:12:44;17.50;99.90
16829;DHT22;8531;48.078;11.968;2022-07-12T02:15:10;17.40;99.90
16829;DHT22;8531;48.078;11.968;2022-07-12T02:17:36;17.40;99.90
16829;DHT22;8531;48.078;11.968;2022-07-12T02:20:03;17.50;99.90
16829;DHT22;8531;48.078;11.968;2022-07-12T02:22:29;17.40;99.90
16829;DHT22;8531;48.078;11.968;2022-07-12T02:24:55;17.40;99.90
16829;DHT22;8531;48.078;11.968;2022-07-12T02:27:20;17.50;99.90
16829;DHT22;8531;48.078;11.968;2022-07-12T02:29:46;17.40;99.90
16829;DHT22;8531;48.078;11.968;2022-07-12T02:32:12;17.30;99.90
16829;DHT22;8531;48.078;11.968;2022-07-12T02:34:37;17.20;99.90
16829;DHT22;8531;48.078;11.968;2022-07-12T02:37:03;17.20;99.90
16829;DHT22;8531;48.078;11.968;2022-07-12T02:39:29;17.10;99.90
16829;DHT22;8531;48.078;11.968;2022-07-12T02:41:54;17.10;99.90
16829;DHT22;8531;48.078;11.968;2022-07-12T02:44:20;17.10;99.90
16829;DHT22;8531;48.078;11.968;2022-07-12T02:46:46;17.10;99.90
16829;DHT22;8531;48.078;11.968;2022-07-12T02:49:11;17.10;99.90
16829;DHT22;8531;48.078;11.968;2022-07-12T02:51:37;17.10;99.90
16829;DHT22;8531;48.078;11.968;2022-07-12T02:54:02;17.10;99.90
16829;DHT22;8531;48.078;11.968;2022-07-12T02:56:28;17.00;99.90
16829;DHT22;8531;48.078;11.968;2022-07-12T02:58:54;16.90;99.90
16829;DHT22;8531;48.078;11.968;2022-07-12T03:01:20;16.90;99.90
16829;DHT22;8531;48.078;11.968;2022-07-12T03:03:45;16.90;99.90
16829;DHT22;8531;48.078;11.968;2022-07-12T03:06:11;16.80;99.90
16829;DHT22;8531;48.078;11.968;2022-07-12T03:08:38;16.70;99.90
16829;DHT22;8531;48.078;11.968;2022-07-12T03:11:04;16.60;99.90
16829;DHT22;8531;48.078;11.968;2022-07-12T03:13:29;16.60;99.90
16829;DHT22;8531;48.078;11.968;2022-07-12T03:15:55;16.60;99.90
16829;DHT22;8531;48.078;11.968;2022-07-12T03:18:21;16.60;99.90
16829;DHT22;8531;48.078;11.968;2022-07-12T03:20:47;16.50;99.90
16829;DHT22;8531;48.078;11.968;2022-07-12T03:23:14;16.50;99.90
16829;DHT22;8531;48.078;11.968;2022-07-12T03:25:39;16.50;99.90
16829;DHT22;8531;48.078;11.968;2022-07-12T03:28:05;16.40;99.90
16829;DHT22;8531;48.078;11.968;2022-07-12T03:30:31;16.30;99.90
16829;DHT22;8531;48.078;11.968;2022-07-12T03:32:56;16.20;99.90
16829;DHT22;8531;48.078;11.968;2022-07-12T03:35:22;16.20;99.90
16829;DHT22;8531;48.078;11.968;2022-07-12T03:37:50;16.20;99.90
16829;DHT22;8531;48.078;11.968;2022-07-12T03:40:18;16.20;99.90
16829;DHT22;8531;48.078;11.968;2022-07-12T03:42:45;16.10;99.90
16829;DHT22;8531;48.078;11.968;2022-07-12T03:45:12;16.10;99.90
16829;DHT22;8531;48.078;11.968;2022-07-12T03:47:38;16.10;99.90
16829;DHT22;8531;48.078;11.968;2022-07-12T03:50:07;16.10;99.90
16829;DHT22;8531;48.078;11.968;2022-07-12T03:52:34;16.00;99.90
16829;DHT22;8531;48.078;11.968;2022-07-12T03:55:00;16.10;99.90
16829;DHT22;8531;48.078;11.968;2022-07-12T03:57:29;16.10;99.90
16829;DHT22;8531;48.078;11.968;2022-07-12T03:59:55;16.20;99.90
16829;DHT22;8531;48.078;11.968;2022-07-12T04:02:21;16.20;99.90
16829;DHT22;8531;48.078;11.968;2022-07-12T04:04:47;16.20;99.90
16829;DHT22;8531;48.078;11.968;2022-07-12T04:07:13;16.20;99.90
16829;DHT22;8531;48.078;11.968;2022-07-12T04:09:39;16.30;99.90
16829;DHT22;8531;48.078;11.968;2022-07-12T04:12:05;16.40;99.90
16829;DHT22;8531;48.078;11.968;2022-07-12T04:14:31;16.50;99.90
16829;DHT22;8531;48.078;11.968;2022-07-12T04:16:57;16.50;99.90
16829;DHT22;8531;48.078;11.968;2022-07-12T04:19:23;16.50;99.90
16829;DHT22;8531;48.078;11.968;2022-07-12T04:21:53;16.60;99.90
16829;DHT22;8531;48.078;11.968;2022-07-12T04:24:18;16.60;99.90
16829;DHT22;8531;48.078;11.968;2022-07-12T04:26:44;16.70;99.90
16829;DHT22;8531;48.078;11.968;2022-07-12T04:29:10;16.70;99.90
16829;DHT22;8531;48.078;11.968;2022-07-12T04:31:35;16.70;99.90
16829;DHT22;8531;48.078;11.968;2022-07-12T04:34:01;16.70;99.90
16829;DHT22;8531;48.078;11.968;2022-07-12T04:36:27;16.70;99.90
16829;DHT22;8531;48.078;11.968;2022-07-12T04:38:52;16.80;99.90
16829;DHT22;8531;48.078;11.968;2022-07-12T04:41:18;16.80;99.90
16829;DHT22;8531;48.078;11.968;2022-07-12T04:43:43;16.80;99.90
16829;DHT22;8531;48.078;11.968;2022-07-12T04:46:09;16.90;99.90
16829;DHT22;8531;48.078;11.968;2022-07-12T04:48:36;17.00;99.90
16829;DHT22;8531;48.078;11.968;2022-07-12T04:51:02;17.00;99.90
16829;DHT22;8531;48.078;11.968;2022-07-12T04:53:28;17.10;99.90
16829;DHT22;8531;48.078;11.968;2022-07-12T04:55:57;17.20;99.90
16829;DHT22;8531;48.078;11.968;2022-07-12T04:58:23;17.10;99.90
16829;DHT22;8531;48.078;11.968;2022-07-12T05:00:50;17.10;99.90
16829;DHT22;8531;48.078;11.968;2022-07-12T05:03:15;17.10;99.90
16829;DHT22;8531;48.078;11.968;2022-07-12T05:05:42;17.20;99.90
16829;DHT22;8531;48.078;11.968;2022-07-12T05:08:08;17.20;99.90
16829;DHT22;8531;48.078;11.968;2022-07-12T05:10:33;17.20;99.90
16829;DHT22;8531;48.078;11.968;2022-07-12T05:13:00;17.30;99.90
16829;DHT22;8531;48.078;11.968;2022-07-12T05:15:25;17.30;99.90
16829;DHT22;8531;48.078;11.968;2022-07-12T05:17:51;17.30;99.90
16829;DHT22;8531;48.078;11.968;2022-07-12T05:20:17;17.40;99.90
16829;DHT22;8531;48.078;11.968;2022-07-12T05:22:42;17.30;99.90
16829;DHT22;8531;48.078;11.968;2022-07-12T05:25:08;17.30;99.90
16829;DHT22;8531;48.078;11.968;2022-07-12T05:27:36;17.40;99.90
16829;DHT22;8531;48.078;11.968;2022-07-12T05:30:03;17.40;99.90
16829;DHT22;8531;48.078;11.968;2022-07-12T05:32:29;17.30;99.90
16829;DHT22;8531;48.078;11.968;2022-07-12T05:34:55;17.30;99.90
16829;DHT22;8531;48.078;11.968;2022-07-12T05:37:21;17.40;99.90
16829;DHT22;8531;48.078;11.968;2022-07-12T05:39:49;17.50;99.90
16829;DHT22;8531;48.078;11.968;2022-07-12T05:42:14;17.50;99.90
16829;DHT22;8531;48.078;11.968;2022-07-12T05:44:40;17.60;99.90
16829;DHT22;8531;48.078;11.968;2022-07-12T05:47:06;17.70;99.90
16829;DHT22;8531;48.078;11.968;2022-07-12T05:49:32;17.80;99.90
16829;DHT22;8531;48.078;11.968;2022-07-12T05:51:57;17.80;99.90
16829;DHT22;8531;48.078;11.968;2022-07-12T05:54:41;17.80;99.90
16829;DHT22;8531;48.078;11.968;2022-07-12T05:57:07;17.80;99.90
16829;DHT22;8531;48.078;11.968;2022-07-12T05:59:34;17.70;99.90
16829;DHT22;8531;48.078;11.968;2022-07-12T06:02:00;17.80;99.90
16829;DHT22;8531;48.078;11.968;2022-07-12T06:04:26;17.90;99.90
16829;DHT22;8531;48.078;11.968;2022-07-12T06:06:51;17.90;99.90
16829;DHT22;8531;48.078;11.968;2022-07-12T06:09:17;17.90;99.90
16829;DHT22;8531;48.078;11.968;2022-07-12T06:11:42;17.90;99.90
16829;DHT22;8531;48.078;11.968;2022-07-12T06:14:08;17.90;99.90
16829;DHT22;8531;48.078;11.968;2022-07-12T06:16:34;17.90;99.90
16829;DHT22;8531;48.078;11.968;2022-07-12T06:18:59;17.90;99.90
16829;DHT22;8531;48.078;11.968;2022-07-12T06:21:25;18.00;99.90
16829;DHT22;8531;48.078;11.968;2022-07-12T06:23:50;18.10;99.90
16829;DHT22;8531;48.078;11.968;2022-07-12T06:26:16;18.20;99.90
16829;DHT22;8531;48.078;11.968;2022-07-12T06:28:42;18.30;99.90
16829;DHT22;8531;48.078;11.968;2022-07-12T06:31:07;18.40;99.90
16829;DHT22;8531;48.078;11.968;2022-07-12T06:33:33;18.50;99.90
16829;DHT22;8531;48.078;11.968;2022-07-12T06:35:59;18.50;99.90
16829;DHT22;8531;48.078;11.968;2022-07-12T06:38:25;18.60;99.90
16829;DHT22;8531;48.078;11.968;2022-07-12T06:40:51;18.60;99.90
16829;DHT22;8531;48.078;11.968;2022-07-12T06:43:16;18.70;99.90
16829;DHT22;8531;48.078;11.968;2022-07-12T06:45:42;18.80;99.90
16829;DHT22;8531;48.078;11.968;2022-07-12T06:48:08;19.00;99.90
16829;DHT22;8531;48.078;11.968;2022-07-12T06:50:33;19.00;99.90
16829;DHT22;8531;48.078;11.968;2022-07-12T06:52:59;19.20;99.90
16829;DHT22;8531;48.078;11.968;2022-07-12T06:55:25;19.20;99.90
16829;DHT22;8531;48.078;11.968;2022-07-12T06:57:51;19.40;99.90
16829;DHT22;8531;48.078;11.968;2022-07-12T07:00:17;19.40;99.90
16829;DHT22;8531;48.078;11.968;2022-07-12T07:02:42;19.50;99.90
16829;DHT22;8531;48.078;11.968;2022-07-12T07:05:08;19.70;99.90
16829;DHT22;8531;48.078;11.968;2022-07-12T07:07:34;19.70;99.90
16829;DHT22;8531;48.078;11.968;2022-07-12T07:10:00;19.70;99.90
16829;DHT22;8531;48.078;11.968;2022-07-12T07:12:25;19.70;99.90
16829;DHT22;8531;48.078;11.968;2022-07-12T07:14:51;19.60;99.90
16829;DHT22;8531;48.078;11.968;2022-07-12T07:17:17;19.90;99.90
16829;DHT22;8531;48.078;11.968;2022-07-12T07:19:44;20.10;99.90
16829;DHT22;8531;48.078;11.968;2022-07-12T07:22:10;20.10;99.90
16829;DHT22;8531;48.078;11.968;2022-07-12T07:24:36;20.00;99.90
16829;DHT22;8531;48.078;11.968;2022-07-12T07:27:01;20.20;99.90
16829;DHT22;8531;48.078;11.968;2022-07-12T07:29:27;20.40;99.90
16829;DHT22;8531;48.078;11.968;2022-07-12T07:32:11;20.60;99.90
16829;DHT22;8531;48.078;11.968;2022-07-12T07:34:37;20.70;99.90
16829;DHT22;8531;48.078;11.968;2022-07-12T07:37:03;20.70;99.90
16829;DHT22;8531;48.078;11.968;2022-07-12T07:39:29;21.00;99.90
16829;DHT22;8531;48.078;11.968;2022-07-12T07:41:55;21.00;99.90
16829;DHT22;8531;48.078;11.968;2022-07-12T07:44:20;21.20;99.90
16829;DHT22;8531;48.078;11.968;2022-07-12T07:46:46;21.40;99.90
16829;DHT22;8531;48.078;11.968;2022-07-12T07:49:11;21.40;99.90
16829;DHT22;8531;48.078;11.968;2022-07-12T07:51:37;21.30;99.90
16829;DHT22;8531;48.078;11.968;2022-07-12T07:54:03;21.50;99.90
16829;DHT22;8531;48.078;11.968;2022-07-12T07:56:29;21.40;99.90
16829;DHT22;8531;48.078;11.968;2022-07-12T07:58:54;21.40;99.90
16829;DHT22;8531;48.078;11.968;2022-07-12T08:01:20;21.60;99.90
16829;DHT22;8531;48.078;11.968;2022-07-12T08:03:46;21.80;99.90
16829;DHT22;8531;48.078;11.968;2022-07-12T08:06:11;21.90;99.90
16829;DHT22;8531;48.078;11.968;2022-07-12T08:08:37;22.00;99.90
16829;DHT22;8531;48.078;11.968;2022-07-12T08:11:03;21.90;99.90
16829;DHT22;8531;48.078;11.968;2022-07-12T08:13:29;21.80;99.90
16829;DHT22;8531;48.078;11.968;2022-07-12T08:15:54;21.90;99.90
16829;DHT22;8531;48.078;11.968;2022-07-12T08:18:20;22.20;99.90
16829;DHT22;8531;48.078;11.968;2022-07-12T08:20:46;22.40;99.90
16829;DHT22;8531;48.078;11.968;2022-07-12T08:23:11;22.50;99.90
16829;DHT22;8531;48.078;11.968;2022-07-12T08:25:37;22.80;99.90
16829;DHT22;8531;48.078;11.968;2022-07-12T08:28:03;22.70;99.90
16829;DHT22;8531;48.078;11.968;2022-07-12T08:30:29;22.70;99.90
16829;DHT22;8531;48.078;11.968;2022-07-12T08:32:55;22.40;99.90
16829;DHT22;8531;48.078;11.968;2022-07-12T08:35:20;22.30;99.90
16829;DHT22;8531;48.078;11.968;2022-07-12T08:37:46;22.30;99.90
16829;DHT22;8531;48.078;11.968;2022-07-12T08:40:11;22.10;99.90
16829;DHT22;8531;48.078;11.968;2022-07-12T08:42:41;22.20;99.90
16829;DHT22;8531;48.078;11.968;2022-07-12T08:45:07;22.40;99.90
16829;DHT22;8531;48.078;11.968;2022-07-12T08:47:33;22.90;99.90
16829;DHT22;8531;48.078;11.968;2022-07-12T08:50:15;23.20;99.90
16829;DHT22;8531;48.078;11.968;2022-07-12T08:52:45;23.50;99.90
16829;DHT22;8531;48.078;11.968;2022-07-12T08:57:43;23.60;99.90
16829;DHT22;8531;48.078;11.968;2022-07-12T09:00:10;23.70;99.90
16829;DHT22;8531;48.078;11.968;2022-07-12T09:02:56;24.10;99.90
16829;DHT22;8531;48.078;11.968;2022-07-12T09:05:24;23.90;99.90
16829;DHT22;8531;48.078;11.968;2022-07-12T09:07:50;23.70;99.90
16829;DHT22;8531;48.078;11.968;2022-07-12T09:10:17;23.80;99.90
16829;DHT22;8531;48.078;11.968;2022-07-12T09:12:43;23.90;99.90
16829;DHT22;8531;48.078;11.968;2022-07-12T09:15:16;24.30;99.90
16829;DHT22;8531;48.078;11.968;2022-07-12T09:20:32;23.80;99.90
16829;DHT22;8531;48.078;11.968;2022-07-12T09:23:06;23.40;99.90
16829;DHT22;8531;48.078;11.968;2022-07-12T09:25:33;23.20;99.90
16829;DHT22;8531;48.078;11.968;2022-07-12T09:28:04;22.90;99.90
16829;DHT22;8531;48.078;11.968;2022-07-12T09:30:30;22.80;99.90
16829;DHT22;8531;48.078;11.968;2022-07-12T09:33:00;23.10;99.90
16829;DHT22;8531;48.078;11.968;2022-07-12T09:36:05;23.10;99.90
16829;DHT22;8531;48.078;11.968;2022-07-12T09:38:52;23.00;99.90
16829;DHT22;8531;48.078;11.968;2022-07-12T09:41:26;23.40;99.90
16829;DHT22;8531;48.078;11.968;2022-07-12T09:43:52;24.00;99.90
16829;DHT22;8531;48.078;11.968;2022-07-12T09:46:19;24.10;99.90
16829;DHT22;8531;48.078;11.968;2022-07-12T09:48:46;23.80;99.90
16829;DHT22;8531;48.078;11.968;2022-07-12T09:51:16;24.20;99.90
16829;DHT22;8531;48.078;11.968;2022-07-12T09:53:47;24.30;99.90
16829;DHT22;8531;48.078;11.968;2022-07-12T09:56:17;24.00;99.90
16829;DHT22;8531;48.078;11.968;2022-07-12T09:58:53;23.70;99.90
16829;DHT22;8531;48.078;11.968;2022-07-12T10:01:20;23.90;99.90
16829;DHT22;8531;48.078;11.968;2022-07-12T10:03:47;24.60;99.90
16829;DHT22;8531;48.078;11.968;2022-07-12T10:06:20;24.90;99.90
16829;DHT22;8531;48.078;11.968;2022-07-12T10:08:49;25.20;99.90
16829;DHT22;8531;48.078;11.968;2022-07-12T10:11:16;25.20;99.90
16829;DHT22;8531;48.078;11.968;2022-07-12T10:13:42;24.80;99.90
16829;DHT22;8531;48.078;11.968;2022-07-12T10:16:10;24.50;99.90
16829;DHT22;8531;48.078;11.968;2022-07-12T10:18:39;24.20;99.90
16829;DHT22;8531;48.078;11.968;2022-07-12T10:21:18;24.40;99.90
16829;DHT22;8531;48.078;11.968;2022-07-12T10:23:45;24.80;99.90
16829;DHT22;8531;48.078;11.968;2022-07-12T10:29:04;24.70;99.90
16829;DHT22;8531;48.078;11.968;2022-07-12T10:31:38;24.60;99.90
16829;DHT22;8531;48.078;11.968;2022-07-12T10:34:19;24.50;99.90
16829;DHT22;8531;48.078;11.968;2022-07-12T10:37:08;24.20;99.90
16829;DHT22;8531;48.078;11.968;2022-07-12T10:39:34;24.00;99.90
16829;DHT22;8531;48.078;11.968;2022-07-12T10:44:37;24.50;99.90
16829;DHT22;8531;48.078;11.968;2022-07-12T10:47:04;24.80;99.90
16829;DHT22;8531;48.078;11.968;2022-07-12T10:49:31;25.30;99.90
16829;DHT22;8531;48.078;11.968;2022-07-12T10:52:15;25.40;99.90
16829;DHT22;8531;48.078;11.968;2022-07-12T10:57:47;25.70;99.90
16829;DHT22;8531;48.078;11.968;2022-07-12T11:00:16;25.80;99.90
16829;DHT22;8531;48.078;11.968;2022-07-12T11:02:42;25.90;99.90
16829;DHT22;8531;48.078;11.968;2022-07-12T11:05:08;25.60;99.90
16829;DHT22;8531;48.078;11.968;2022-07-12T11:07:34;25.50;99.90
16829;DHT22;8531;48.078;11.968;2022-07-12T11:10:00;25.30;99.90
16829;DHT22;8531;48.078;11.968;2022-07-12T11:12:30;25.20;99.90
16829;DHT22;8531;48.078;11.968;2022-07-12T11:14:58;25.00;99.90
16829;DHT22;8531;48.078;11.968;2022-07-12T11:17:32;24.90;99.90
16829;DHT22;8531;48.078;11.968;2022-07-12T11:20:08;24.60;99.90
16829;DHT22;8531;48.078;11.968;2022-07-12T11:22:36;24.60;99.90
16829;DHT22;8531;48.078;11.968;2022-07-12T11:25:03;25.00;99.90
16829;DHT22;8531;48.078;11.968;2022-07-12T11:27:29;25.60;99.90
16829;DHT22;8531;48.078;11.968;2022-07-12T11:29:59;26.20;99.90
16829;DHT22;8531;48.078;11.968;2022-07-12T11:32:41;26.50;99.90
16829;DHT22;8531;48.078;11.968;2022-07-12T11:35:38;26.30;99.90
16829;DHT22;8531;48.078;11.968;2022-07-12T11:38:04;26.20;99.90
16829;DHT22;8531;48.078;11.968;2022-07-12T11:40:30;25.90;99.90
16829;DHT22;8531;48.078;11.968;2022-07-12T11:43:00;25.70;99.90
16829;DHT22;8531;48.078;11.968;2022-07-12T11:45:30;25.90;99.90
16829;DHT22;8531;48.078;11.968;2022-07-12T11:48:01;26.20;99.90
16829;DHT22;8531;48.078;11.968;2022-07-12T11:50:31;26.00;99.90
16829;DHT22;8531;48.078;11.968;2022-07-12T11:52:57;25.60;99.90
16829;DHT22;8531;48.078;11.968;2022-07-12T11:55:23;25.20;99.90
16829;DHT22;8531;48.078;11.968;2022-07-12T11:57:49;24.80;99.90
16829;DHT22;8531;48.078;11.968;2022-07-12T12:00:22;24.60;99.90
16829;DHT22;8531;48.078;11.968;2022-07-12T12:02:52;24.50;99.90
16829;DHT22;8531;48.078;11.968;2022-07-12T12:05:19;24.50;99.90
16829;DHT22;8531;48.078;11.968;2022-07-12T12:07:45;25.00;99.90
16829;DHT22;8531;48.078;11.968;2022-07-12T12:10:15;25.40;99.90
16829;DHT22;8531;48.078;11.968;2022-07-12T12:12:49;25.90;99.90
16829;DHT22;8531;48.078;11.968;2022-07-12T12:15:28;25.90;99.90
16829;DHT22;8531;48.078;11.968;2022-07-12T12:18:05;26.60;99.90
16829;DHT22;8531;48.078;11.968;2022-07-12T12:20:33;26.30;99.90
16829;DHT22;8531;48.078;11.968;2022-07-12T12:23:06;26.20;99.90
16829;DHT22;8531;48.078;11.968;2022-07-12T12:25:33;26.20;99.90
16829;DHT22;8531;48.078;11.968;2022-07-12T12:28:05;26.50;99.90
16829;DHT22;8531;48.078;11.968;2022-07-12T12:30:32;27.00;99.90
16829;DHT22;8531;48.078;11.968;2022-07-12T12:33:00;27.00;99.90
16829;DHT22;8531;48.078;11.968;2022-07-12T12:35:36;27.30;99.90
16829;DHT22;8531;48.078;11.968;2022-07-12T12:38:09;27.60;99.90
16829;DHT22;8531;48.078;11.968;2022-07-12T12:40:35;28.00;99.90
16829;DHT22;8531;48.078;11.968;2022-07-12T12:43:12;28.10;99.90
16829;DHT22;8531;48.078;11.968;2022-07-12T12:45:54;28.10;99.90
16829;DHT22;8531;48.078;11.968;2022-07-12T12:48:22;28.00;99.90
16829;DHT22;8531;48.078;11.968;2022-07-12T12:50:49;28.00;99.90
16829;DHT22;8531;48.078;11.968;2022-07-12T12:53:16;27.50;99.90
16829;DHT22;8531;48.078;11.968;2022-07-12T12:55:47;27.40;99.90
16829;DHT22;8531;48.078;11.968;2022-07-12T12:58:13;27.40;99.90
16829;DHT22;8531;48.078;11.968;2022-07-12T13:00:44;27.60;99.90
16829;DHT22;8531;48.078;11.968;2022-07-12T13:03:11;27.80;99.80
16829;DHT22;8531;48.078;11.968;2022-07-12T13:05:38;27.70;99.40
16829;DHT22;8531;48.078;11.968;2022-07-12T13:08:05;28.00;99.50
16829;DHT22;8531;48.078;11.968;2022-07-12T13:10:32;28.40;99.30
16829;DHT22;8531;48.078;11.968;2022-07-12T13:12:58;28.50;99.30
16829;DHT22;8531;48.078;11.968;2022-07-12T13:15:25;28.70;98.60
16829;DHT22;8531;48.078;11.968;2022-07-12T13:17:50;29.00;99.20
16829;DHT22;8531;48.078;11.968;2022-07-12T13:20:16;28.80;98.30
16829;DHT22;8531;48.078;11.968;2022-07-12T13:22:43;27.80;98.80
16829;DHT22;8531;48.078;11.968;2022-07-12T13:25:13;28.00;98.90
16829;DHT22;8531;48.078;11.968;2022-07-12T13:27:40;28.60;98.70
16829;DHT22;8531;48.078;11.968;2022-07-12T13:30:08;28.80;98.40
16829;DHT22;8531;48.078;11.968;2022-07-12T13:32:35;29.00;98.10
16829;DHT22;8531;48.078;11.968;2022-07-12T13:35:01;28.90;97.70
16829;DHT22;8531;48.078;11.968;2022-07-12T13:37:27;27.70;97.90
16829;DHT22;8531;48.078;11.968;2022-07-12T13:39:53;27.80;98.20
16829;DHT22;8531;48.078;11.968;2022-07-12T13:42:47;28.10;98.60
16829;DHT22;8531;48.078;11.968;2022-07-12T13:45:16;28.60;98.70
16829;DHT22;8531;48.078;11.968;2022-07-12T13:47:42;28.60;98.50
16829;DHT22;8531;48.078;11.968;2022-07-12T13:50:11;27.70;98.50
16829;DHT22;8531;48.078;11.968;2022-07-12T13:52:37;28.10;98.00
16829;DHT22;8531;48.078;11.968;2022-07-12T13:55:05;27.60;97.80
16829;DHT22;8531;48.078;11.968;2022-07-12T13:57:31;27.50;98.10
16829;DHT22;8531;48.078;11.968;2022-07-12T13:59:58;27.80;98.20
16829;DHT22;8531;48.078;11.968;2022-07-12T14:02:24;28.00;98.00
16829;DHT22;8531;48.078;11.968;2022-07-12T14:04:51;28.70;98.30
16829;DHT22;8531;48.078;11.968;2022-07-12T14:07:17;28.90;97.20
16829;DHT22;8531;48.078;11.968;2022-07-12T14:09:42;27.70;97.60
16829;DHT22;8531;48.078;11.968;2022-07-12T14:12:08;28.00;98.30
16829;DHT22;8531;48.078;11.968;2022-07-12T14:14:35;28.50;97.40
16829;DHT22;8531;48.078;11.968;2022-07-12T14:17:20;28.70;97.50
16829;DHT22;8531;48.078;11.968;2022-07-12T14:19:45;28.60;97.00
16829;DHT22;8531;48.078;11.968;2022-07-12T14:22:11;28.20;97.80
16829;DHT22;8531;48.078;11.968;2022-07-12T14:24:36;27.80;97.30
16829;DHT22;8531;48.078;11.968;2022-07-12T14:27:02;26.40;97.90
16829;DHT22;8531;48.078;11.968;2022-07-12T14:29:28;27.10;98.00
16829;DHT22;8531;48.078;11.968;2022-07-12T14:31:54;27.00;98.20
16829;DHT22;8531;48.078;11.968;2022-07-12T14:34:22;27.30;98.70
16829;DHT22;8531;48.078;11.968;2022-07-12T14:36:47;27.60;97.60
16829;DHT22;8531;48.078;11.968;2022-07-12T14:39:13;28.10;97.30
16829;DHT22;8531;48.078;11.968;2022-07-12T14:41:39;27.90;96.80
16829;DHT22;8531;48.078;11.968;2022-07-12T14:44:04;28.10;96.40
16829;DHT22;8531;48.078;11.968;2022-07-12T14:46:35;28.10;96.80
16829;DHT22;8531;48.078;11.968;2022-07-12T14:49:03;27.90;97.10
16829;DHT22;8531;48.078;11.968;2022-07-12T14:51:29;28.30;97.30
16829;DHT22;8531;48.078;11.968;2022-07-12T14:53:54;28.40;97.00
16829;DHT22;8531;48.078;11.968;2022-07-12T14:56:20;28.30;96.30
16829;DHT22;8531;48.078;11.968;2022-07-12T14:58:46;28.20;96.10
16829;DHT22;8531;48.078;11.968;2022-07-12T15:01:12;28.20;96.40
16829;DHT22;8531;48.078;11.968;2022-07-12T15:03:37;27.90;96.20
16829;DHT22;8531;48.078;11.968;2022-07-12T15:06:03;27.70;97.10
16829;DHT22;8531;48.078;11.968;2022-07-12T15:08:30;27.90;96.70
16829;DHT22;8531;48.078;11.968;2022-07-12T15:10:56;28.00;96.70
16829;DHT22;8531;48.078;11.968;2022-07-12T15:13:23;28.40;95.90
16829;DHT22;8531;48.078;11.968;2022-07-12T15:15:48;28.60;95.70
16829;DHT22;8531;48.078;11.968;2022-07-12T15:18:15;28.60;95.70
16829;DHT22;8531;48.078;11.968;2022-07-12T15:20:41;28.50;95.60
16829;DHT22;8531;48.078;11.968;2022-07-12T15:23:06;28.50;95.80
16829;DHT22;8531;48.078;11.968;2022-07-12T15:25:32;28.60;95.90
16829;DHT22;8531;48.078;11.968;2022-07-12T15:27:58;28.60;95.90
16829;DHT22;8531;48.078;11.968;2022-07-12T15:30:24;28.80;96.00
16829;DHT22;8531;48.078;11.968;2022-07-12T15:32:50;28.10;96.00
16829;DHT22;8531;48.078;11.968;2022-07-12T15:35:17;28.10;96.30
16829;DHT22;8531;48.078;11.968;2022-07-12T15:37:43;28.20;95.40
16829;DHT22;8531;48.078;11.968;2022-07-12T15:40:09;28.50;95.30
16829;DHT22;8531;48.078;11.968;2022-07-12T15:42:35;28.50;95.50
16829;DHT22;8531;48.078;11.968;2022-07-12T15:45:01;28.50;95.20
16829;DHT22;8531;48.078;11.968;2022-07-12T15:47:27;28.60;95.20